createdAt,value
2018-03-01T00:00:31.089Z,49.30
2018-03-01T00:02:58.638Z,49.20
2018-03-01T00:05:26.214Z,49.00
2018-03-01T00:07:53.792Z,49.20
2018-03-01T00:10:21.363Z,49.30
2018-03-01T00:12:48.921Z,49.20
2018-03-01T00:15:16.475Z,49.80
2018-03-01T00:17:44.073Z,49.30
2018-03-01T00:20:11.621Z,49.80
2018-03-01T00:22:39.961Z,49.30
2018-03-01T00:25:08.286Z,49.70
2018-03-01T00:27:35.857Z,49.70
2018-03-01T00:30:03.400Z,49.50
2018-03-01T00:32:30.976Z,49.20
2018-03-01T00:34:58.529Z,49.30
2018-03-01T00:37:26.096Z,49.30
2018-03-01T00:39:53.644Z,49.20
2018-03-01T00:42:21.205Z,48.80
2018-03-01T00:44:49.512Z,49.40
2018-03-01T00:47:17.082Z,49.30
2018-03-01T00:49:44.646Z,49.40
2018-03-01T00:52:12.217Z,49.00
2018-03-01T00:54:39.784Z,49.20
2018-03-01T00:57:07.337Z,49.30
2018-03-01T00:59:36.257Z,49.10
2018-03-01T01:02:04.578Z,49.30
2018-03-01T01:04:32.177Z,49.20
2018-03-01T01:06:59.729Z,49.20
2018-03-01T01:09:27.298Z,49.10
2018-03-01T01:11:54.852Z,48.70
2018-03-01T01:14:22.428Z,48.70
2018-03-01T01:16:49.991Z,48.50
2018-03-01T01:19:17.569Z,48.70
2018-03-01T01:21:45.126Z,48.40
2018-03-01T01:24:12.771Z,49.00
2018-03-01T01:26:40.317Z,48.70
2018-03-01T01:29:07.885Z,48.70
2018-03-01T01:31:35.788Z,49.00
2018-03-01T01:34:03.361Z,49.00
2018-03-01T01:36:30.978Z,48.60
2018-03-01T01:38:58.514Z,48.40
2018-03-01T01:41:26.860Z,48.50
2018-03-01T01:43:54.415Z,48.40
2018-03-01T01:46:21.986Z,49.00
2018-03-01T01:48:49.544Z,49.30
2018-03-01T01:51:17.113Z,48.50
2018-03-01T01:53:44.673Z,48.70
2018-03-01T01:56:13.003Z,48.60
2018-03-01T01:58:40.545Z,48.60
2018-03-01T02:01:08.119Z,48.70
2018-03-01T02:03:35.668Z,49.40
2018-03-01T02:06:04.008Z,48.70
2018-03-01T02:08:31.552Z,48.60
2018-03-01T02:10:59.123Z,48.70
2018-03-01T02:13:26.674Z,48.50
2018-03-01T02:15:54.252Z,49.30
2018-03-01T02:18:21.820Z,48.50
2018-03-01T02:20:49.373Z,48.80
2018-03-01T02:23:16.944Z,48.70
2018-03-01T02:25:44.516Z,49.30
2018-03-01T02:28:12.852Z,49.00
2018-03-01T02:30:40.398Z,49.00
2018-03-01T02:33:07.969Z,49.20
2018-03-01T02:35:35.520Z,49.30
2018-03-01T02:38:03.853Z,49.30
2018-03-01T02:40:31.405Z,49.20
2018-03-01T02:42:58.990Z,49.20
2018-03-01T02:45:26.546Z,49.30
2018-03-01T02:47:54.123Z,49.20
2018-03-01T02:50:21.670Z,49.50
2018-03-01T02:52:50.013Z,49.70
2018-03-01T02:55:17.564Z,49.60
2018-03-01T02:57:45.140Z,49.10
2018-03-01T03:00:12.725Z,49.70
2018-03-01T03:02:40.280Z,49.50
2018-03-01T03:05:07.853Z,49.90
2018-03-01T03:07:35.414Z,49.70
2018-03-01T03:10:02.991Z,50.00
2018-03-01T03:12:30.545Z,49.70
2018-03-01T03:14:58.114Z,50.10
2018-03-01T03:17:25.673Z,50.30
2018-03-01T03:19:54.065Z,49.60
2018-03-01T03:22:22.663Z,49.70
2018-03-01T03:24:51.009Z,50.10
2018-03-01T03:27:18.558Z,50.20
2018-03-01T03:29:46.134Z,50.10
2018-03-01T03:32:13.680Z,50.00
2018-03-01T03:34:41.256Z,50.50
2018-03-01T03:37:08.820Z,50.20
2018-03-01T03:39:36.417Z,51.30
2018-03-01T03:42:03.965Z,50.00
2018-03-01T03:44:31.513Z,50.20
2018-03-01T03:46:59.861Z,50.60
2018-03-01T03:49:28.181Z,49.90
2018-03-01T03:51:55.736Z,49.90
2018-03-01T03:54:23.316Z,50.10
2018-03-01T03:56:50.868Z,49.40
2018-03-01T03:59:18.424Z,49.40
2018-03-01T04:01:46.029Z,49.20
2018-03-01T04:04:13.577Z,49.40
2018-03-01T04:06:41.194Z,49.40
2018-03-01T04:09:09.546Z,49.60
2018-03-01T04:11:37.096Z,49.40
2018-03-01T04:14:04.648Z,49.50
2018-03-01T04:16:32.231Z,49.60
2018-03-01T04:18:59.777Z,49.40
2018-03-01T04:21:28.117Z,49.40
2018-03-01T04:23:55.698Z,49.40
2018-03-01T04:26:23.253Z,50.10
2018-03-01T04:28:50.803Z,50.00
2018-03-01T04:31:18.397Z,49.40
2018-03-01T04:33:46.722Z,50.00
2018-03-01T04:36:14.279Z,50.00
2018-03-01T04:38:41.860Z,49.80
2018-03-01T04:41:10.202Z,49.90
2018-03-01T04:43:37.767Z,49.90
2018-03-01T04:46:05.348Z,50.30
2018-03-01T04:48:32.904Z,50.50
2018-03-01T04:51:00.474Z,50.10
2018-03-01T04:53:28.073Z,50.50
2018-03-01T04:55:55.625Z,50.90
2018-03-01T04:58:23.173Z,50.60
2018-03-01T05:00:51.517Z,49.80
2018-03-01T05:03:19.090Z,49.90
2018-03-01T05:05:46.689Z,51.00
2018-03-01T05:08:14.261Z,49.60
2018-03-01T05:10:41.813Z,49.80
2018-03-01T05:13:09.411Z,50.10
2018-03-01T05:15:36.996Z,49.40
2018-03-01T05:18:05.312Z,49.50
2018-03-01T05:20:32.876Z,49.40
2018-03-01T05:23:00.472Z,49.40
2018-03-01T05:25:28.020Z,49.40
2018-03-01T05:27:55.574Z,49.40
2018-03-01T05:30:23.266Z,49.90
2018-03-01T05:32:50.839Z,49.70
2018-03-01T05:35:18.448Z,49.50
2018-03-01T05:37:46.021Z,50.40
2018-03-01T05:40:13.571Z,49.40
2018-03-01T05:42:41.117Z,49.50
2018-03-01T05:45:08.698Z,50.30
2018-03-01T05:47:36.298Z,50.30
2018-03-01T05:50:03.835Z,50.40
2018-03-01T05:52:31.417Z,50.70
2018-03-01T05:54:59.001Z,50.80
2018-03-01T05:57:26.553Z,50.30
2018-03-01T05:59:54.137Z,50.80
2018-03-01T06:02:21.720Z,50.10
2018-03-01T06:04:49.392Z,50.80
2018-03-01T06:07:16.965Z,51.40
2018-03-01T06:09:44.540Z,50.10
2018-03-01T06:12:12.108Z,50.20
2018-03-01T06:14:39.676Z,49.50
2018-03-01T06:17:08.471Z,50.00
2018-03-01T06:19:36.025Z,49.90
2018-03-01T06:22:03.615Z,49.60
2018-03-01T06:24:31.183Z,49.70
2018-03-01T06:26:58.724Z,49.50
2018-03-01T06:29:27.237Z,49.50
2018-03-01T06:31:54.791Z,49.90
2018-03-01T06:34:23.106Z,49.60
2018-03-01T06:36:50.775Z,49.60
2018-03-01T06:39:18.330Z,49.50
2018-03-01T06:41:45.893Z,49.20
2018-03-01T06:44:13.483Z,49.50
2018-03-01T06:46:41.048Z,49.50
2018-03-01T06:49:08.623Z,49.60
2018-03-01T06:51:38.484Z,49.00
2018-03-01T06:54:06.049Z,48.30
2018-03-01T06:56:33.604Z,48.40
2018-03-01T06:59:01.184Z,48.20
2018-03-01T07:01:28.748Z,48.30
2018-03-01T07:03:56.309Z,48.00
2018-03-01T07:06:23.901Z,48.00
2018-03-01T07:08:51.454Z,48.50
2018-03-01T07:11:19.020Z,47.60
2018-03-01T07:13:46.604Z,47.70
2018-03-01T07:16:14.176Z,47.70
2018-03-01T07:18:41.820Z,47.60
2018-03-01T07:21:09.397Z,47.80
2018-03-01T07:23:36.960Z,48.10
2018-03-01T07:26:04.513Z,47.50
2018-03-01T07:28:32.885Z,47.00
2018-03-01T07:31:00.459Z,47.00
2018-03-01T07:33:28.015Z,45.80
2018-03-01T07:35:55.600Z,45.80
2018-03-01T07:38:23.189Z,45.40
2018-03-01T07:40:50.765Z,46.10
2018-03-01T07:43:19.862Z,45.40
2018-03-01T07:45:47.412Z,45.30
2018-03-01T07:48:15.002Z,45.40
2018-03-01T07:50:42.553Z,44.60
2018-03-01T07:53:10.158Z,43.60
2018-03-01T07:55:38.479Z,43.40
2018-03-01T07:58:06.027Z,43.30
2018-03-01T08:00:34.369Z,42.00
2018-03-01T08:03:02.260Z,41.90
2018-03-01T08:05:29.965Z,41.80
2018-03-01T08:07:57.517Z,42.10
2018-03-01T08:10:25.085Z,41.70
2018-03-01T08:12:52.666Z,41.40
2018-03-01T08:15:20.994Z,41.80
2018-03-01T08:17:48.570Z,41.60
2018-03-01T08:20:16.202Z,40.80
2018-03-01T08:22:44.521Z,41.10
2018-03-01T08:25:12.841Z,40.90
2018-03-01T08:27:40.387Z,41.10
2018-03-01T08:30:07.960Z,41.40
2018-03-01T08:32:35.522Z,41.30
2018-03-01T08:35:03.093Z,40.70
2018-03-01T08:37:30.715Z,39.80
2018-03-01T08:39:58.241Z,39.50
2018-03-01T08:42:25.833Z,39.20
2018-03-01T08:44:53.383Z,38.40
2018-03-01T08:47:20.934Z,38.50
2018-03-01T08:49:49.268Z,38.30
2018-03-01T08:52:16.818Z,38.10
2018-03-01T08:54:44.425Z,38.30
2018-03-01T08:57:11.984Z,35.40
2018-03-01T08:59:39.537Z,32.90
2018-03-01T09:02:07.108Z,30.80
2018-03-01T09:04:34.657Z,30.20
2018-03-01T09:07:03.008Z,29.80
2018-03-01T09:09:30.555Z,29.80
2018-03-01T09:11:58.114Z,30.00
2018-03-01T09:14:25.713Z,28.90
2018-03-01T09:16:53.256Z,27.30
2018-03-01T09:19:20.831Z,27.10
2018-03-01T09:21:48.374Z,27.60
2018-03-01T09:24:17.222Z,27.70
2018-03-01T09:26:44.795Z,27.70
2018-03-01T09:29:12.337Z,28.70
2018-03-01T09:31:39.958Z,29.70
2018-03-01T09:34:07.536Z,30.00
2018-03-01T09:36:35.080Z,30.50
2018-03-01T09:39:02.654Z,29.90
2018-03-01T09:41:30.206Z,29.40
2018-03-01T09:43:57.813Z,30.60
2018-03-01T09:46:25.361Z,30.30
2018-03-01T09:48:52.909Z,30.30
2018-03-01T09:51:20.485Z,31.10
2018-03-01T09:53:48.125Z,31.20
2018-03-01T09:56:16.477Z,31.90
2018-03-01T09:58:44.045Z,31.80
2018-03-01T10:01:11.596Z,30.70
2018-03-01T10:03:39.176Z,30.40
2018-03-01T10:06:06.744Z,30.50
2018-03-01T10:08:34.360Z,29.70
2018-03-01T10:11:01.901Z,29.70
2018-03-01T10:13:29.448Z,29.60
2018-03-01T10:15:58.970Z,29.40
2018-03-01T10:18:28.073Z,28.40
2018-03-01T10:20:55.641Z,28.30
2018-03-01T10:23:23.193Z,27.30
2018-03-01T10:25:50.738Z,27.40
2018-03-01T10:28:18.306Z,26.60
2018-03-01T10:30:45.855Z,25.10
2018-03-01T10:33:13.448Z,24.60
2018-03-01T10:35:40.989Z,23.50
2018-03-01T10:38:09.305Z,23.30
2018-03-01T10:40:36.869Z,23.30
2018-03-01T10:43:04.425Z,22.30
2018-03-01T10:45:32.757Z,23.10
2018-03-01T10:48:00.322Z,23.10
2018-03-01T10:50:27.882Z,22.20
2018-03-01T10:52:55.448Z,22.70
2018-03-01T10:55:22.990Z,21.90
2018-03-01T10:57:51.335Z,21.70
2018-03-01T11:00:24.468Z,21.70
2018-03-01T11:02:52.041Z,20.60
2018-03-01T11:05:19.586Z,20.70
2018-03-01T11:07:47.138Z,20.80
2018-03-01T11:10:15.326Z,20.60
2018-03-01T11:12:42.882Z,20.90
2018-03-01T11:15:11.213Z,21.50
2018-03-01T11:17:38.765Z,21.50
2018-03-01T11:20:06.314Z,21.10
2018-03-01T11:22:34.664Z,20.90
2018-03-01T11:25:02.224Z,20.90
2018-03-01T11:27:29.812Z,21.60
2018-03-01T11:29:57.368Z,20.30
2018-03-01T11:32:24.916Z,19.60
2018-03-01T11:34:52.498Z,20.80
2018-03-01T11:37:20.064Z,21.30
2018-03-01T11:39:47.653Z,22.00
2018-03-01T11:42:15.226Z,22.10
2018-03-01T11:44:42.778Z,21.90
2018-03-01T11:47:10.344Z,21.40
2018-03-01T11:49:37.886Z,21.70
2018-03-01T11:52:06.234Z,20.60
2018-03-01T11:54:33.816Z,20.60
2018-03-01T11:57:01.379Z,20.10
2018-03-01T11:59:33.036Z,20.90
2018-03-01T12:02:00.589Z,20.90
2018-03-01T12:04:28.193Z,20.90
2018-03-01T12:06:57.015Z,21.10
2018-03-01T12:09:25.627Z,20.20
2018-03-01T12:11:53.371Z,20.20
2018-03-01T12:14:20.967Z,20.70
2018-03-01T12:16:48.576Z,20.00
2018-03-01T12:19:16.207Z,19.80
2018-03-01T12:21:43.763Z,20.20
2018-03-01T12:24:11.378Z,19.80
2018-03-01T12:26:38.964Z,19.60
2018-03-01T12:29:07.306Z,20.70
2018-03-01T12:31:34.922Z,20.70
2018-03-01T12:34:03.310Z,20.90
2018-03-01T12:36:31.728Z,20.70
2018-03-01T12:38:59.269Z,20.70
2018-03-01T12:41:27.699Z,20.90
2018-03-01T12:43:55.277Z,20.90
2018-03-01T12:46:22.828Z,20.60
2018-03-01T12:48:50.406Z,19.00
2018-03-01T12:51:17.977Z,19.70
2018-03-01T12:53:45.572Z,19.10
2018-03-01T12:56:13.132Z,19.10
2018-03-01T12:58:40.674Z,19.10
2018-03-01T13:01:09.021Z,20.00
2018-03-01T13:03:36.591Z,20.00
2018-03-01T13:06:04.293Z,19.20
2018-03-01T13:08:33.532Z,19.00
2018-03-01T13:11:01.161Z,19.00
2018-03-01T13:13:28.708Z,18.50
2018-03-01T13:16:00.057Z,19.40
2018-03-01T13:18:27.625Z,19.20
2018-03-01T13:21:00.140Z,18.70
2018-03-01T13:23:27.713Z,19.50
2018-03-01T13:25:55.281Z,19.70
2018-03-01T13:28:22.851Z,19.90
2018-03-01T13:33:49.941Z,19.50
2018-03-01T13:36:17.509Z,19.50
2018-03-01T13:38:45.066Z,20.30
2018-03-01T13:41:12.647Z,20.30
2018-03-01T13:43:42.125Z,21.00
2018-03-01T13:46:10.450Z,21.50
2018-03-01T13:48:38.014Z,21.50
2018-03-01T13:51:05.569Z,20.30
2018-03-01T13:53:33.962Z,21.80
2018-03-01T13:56:01.536Z,21.70
2018-03-01T13:58:29.078Z,21.60
2018-03-01T14:00:57.413Z,20.80
2018-03-01T14:03:24.958Z,21.10
2018-03-01T14:05:54.332Z,20.80
2018-03-01T14:08:22.487Z,20.30
2018-03-01T14:10:50.074Z,20.40
2018-03-01T14:16:11.510Z,20.70
2018-03-01T14:18:41.648Z,20.70
2018-03-01T14:21:15.921Z,20.90
2018-03-01T14:23:49.102Z,22.00
2018-03-01T14:26:16.699Z,20.90
2018-03-01T14:28:44.219Z,21.30
2018-03-01T14:31:11.814Z,21.00
2018-03-01T14:33:39.358Z,22.20
2018-03-01T14:36:06.929Z,21.60
2018-03-01T14:38:34.486Z,21.80
2018-03-01T14:41:02.812Z,22.30
2018-03-01T14:43:30.384Z,22.30
2018-03-01T14:45:57.935Z,22.50
2018-03-01T14:48:25.530Z,23.50
2018-03-01T14:50:53.073Z,23.60
2018-03-01T14:53:20.621Z,23.30
2018-03-01T14:55:48.984Z,24.00
2018-03-01T14:58:16.564Z,24.40
2018-03-01T15:00:44.137Z,24.00
2018-03-01T15:03:11.686Z,23.30
2018-03-01T15:05:39.255Z,23.70
2018-03-01T15:08:06.849Z,23.90
2018-03-01T15:10:34.410Z,23.80
2018-03-01T15:13:01.996Z,24.20
2018-03-01T15:15:30.313Z,24.80
2018-03-01T15:17:57.887Z,24.40
2018-03-01T15:20:25.466Z,24.90
2018-03-01T15:22:53.012Z,25.40
2018-03-01T15:25:21.370Z,25.50
2018-03-01T15:27:49.760Z,25.90
2018-03-01T15:30:17.374Z,25.90
2018-03-01T15:32:45.018Z,24.70
2018-03-01T15:35:12.581Z,25.10
2018-03-01T15:37:40.161Z,25.10
2018-03-01T15:40:07.714Z,25.20
2018-03-01T15:42:35.257Z,25.60
2018-03-01T15:45:02.843Z,26.10
2018-03-01T15:47:30.393Z,26.10
2018-03-01T15:49:57.939Z,26.70
2018-03-01T15:52:26.328Z,27.50
2018-03-01T15:54:53.862Z,27.30
2018-03-01T15:57:21.397Z,27.20
2018-03-01T15:59:49.005Z,27.30
2018-03-01T16:02:16.568Z,27.40
2018-03-01T16:04:44.119Z,27.60
2018-03-01T16:07:11.705Z,27.70
2018-03-01T16:09:39.262Z,28.40
2018-03-01T16:12:06.805Z,28.40
2018-03-01T16:14:35.153Z,29.10
2018-03-01T16:17:02.700Z,29.10
2018-03-01T16:19:30.244Z,29.60
2018-03-01T16:21:57.821Z,29.60
2018-03-01T16:24:25.424Z,30.10
2018-03-01T16:26:53.690Z,30.00
2018-03-01T16:29:21.274Z,30.00
2018-03-01T16:31:48.837Z,30.00
2018-03-01T16:34:16.450Z,30.30
2018-03-01T16:36:44.019Z,29.60
2018-03-01T16:39:11.569Z,29.80
2018-03-01T16:41:39.136Z,29.90
2018-03-01T16:44:06.687Z,30.00
2018-03-01T16:46:34.237Z,30.30
2018-03-01T16:49:02.577Z,31.10
2018-03-01T16:51:30.891Z,31.30
2018-03-01T16:53:58.465Z,31.20
2018-03-01T16:56:26.020Z,31.30
2018-03-01T16:58:53.589Z,31.50
2018-03-01T17:01:21.954Z,31.70
2018-03-01T17:03:49.510Z,31.80
2018-03-01T17:06:17.124Z,32.30
2018-03-01T17:08:44.689Z,33.60
2018-03-01T17:11:12.246Z,33.00
2018-03-01T17:13:39.821Z,33.10
2018-03-01T17:16:07.369Z,33.40
2018-03-01T17:18:34.949Z,33.70
2018-03-01T17:21:02.500Z,33.80
2018-03-01T17:23:30.817Z,34.20
2018-03-01T17:25:58.387Z,34.20
2018-03-01T17:28:25.939Z,34.20
2018-03-01T17:30:53.522Z,34.10
2018-03-01T17:33:21.067Z,35.10
2018-03-01T17:35:49.402Z,35.50
2018-03-01T17:38:17.003Z,34.80
2018-03-01T17:40:44.560Z,35.40
2018-03-01T17:43:12.153Z,35.40
2018-03-01T17:45:39.718Z,35.70
2018-03-01T17:48:07.275Z,35.70
2018-03-01T17:50:34.861Z,36.50
2018-03-01T17:53:02.417Z,37.20
2018-03-01T17:55:29.998Z,36.20
2018-03-01T17:57:57.565Z,36.60
2018-03-01T18:00:25.127Z,37.20
2018-03-01T18:02:52.708Z,37.20
2018-03-01T18:05:20.273Z,37.60
2018-03-01T18:07:47.871Z,38.00
2018-03-01T18:10:15.436Z,37.70
2018-03-01T18:12:43.764Z,37.90
2018-03-01T18:15:12.097Z,36.90
2018-03-01T18:17:39.646Z,36.80
2018-03-01T18:20:07.230Z,37.50
2018-03-01T18:22:34.786Z,38.30
2018-03-01T18:25:02.373Z,38.30
2018-03-01T18:27:29.953Z,38.60
2018-03-01T18:29:57.510Z,39.80
2018-03-01T18:32:25.081Z,39.60
2018-03-01T18:34:52.628Z,39.50
2018-03-01T18:37:21.019Z,39.40
2018-03-01T18:39:49.371Z,39.50
2018-03-01T18:42:16.946Z,39.40
2018-03-01T18:44:44.519Z,39.70
2018-03-01T18:47:12.079Z,39.10
2018-03-01T18:49:39.699Z,39.90
2018-03-01T18:52:08.017Z,40.20
2018-03-01T18:54:35.579Z,40.20
2018-03-01T18:57:03.162Z,40.30
2018-03-01T18:59:30.721Z,40.00
2018-03-01T19:01:58.326Z,40.60
2018-03-01T19:04:25.870Z,40.70
2018-03-01T19:06:53.413Z,41.00
2018-03-01T19:09:21.756Z,40.40
2018-03-01T19:11:49.325Z,40.30
2018-03-01T19:14:16.912Z,41.30
2018-03-01T19:16:44.467Z,41.80
2018-03-01T19:19:12.017Z,40.70
2018-03-01T19:21:39.602Z,40.80
2018-03-01T19:24:07.161Z,41.20
2018-03-01T19:26:34.757Z,41.30
2018-03-01T19:29:02.837Z,41.30
2018-03-01T19:31:30.392Z,40.70
2018-03-01T19:33:57.969Z,43.00
2018-03-01T19:36:25.520Z,42.70
2018-03-01T19:38:53.098Z,41.50
2018-03-01T19:41:20.678Z,43.00
2018-03-01T19:46:24.837Z,41.90
2018-03-01T19:48:52.410Z,42.00
2018-03-01T19:51:20.149Z,41.20
2018-03-01T19:53:54.214Z,41.50
2018-03-01T19:56:21.833Z,41.50
2018-03-01T19:58:50.213Z,42.40
2018-03-01T20:01:17.783Z,42.30
2018-03-01T20:03:46.158Z,42.20
2018-03-01T20:06:13.721Z,42.20
2018-03-01T20:08:41.314Z,42.00
2018-03-01T20:11:08.877Z,42.10
2018-03-01T20:13:36.461Z,42.90
2018-03-01T20:16:04.052Z,42.80
2018-03-01T20:18:32.369Z,43.10
2018-03-01T20:21:59.539Z,43.10
2018-03-01T20:24:27.093Z,42.50
2018-03-01T20:26:54.692Z,42.70
2018-03-01T20:29:22.239Z,41.80
2018-03-01T20:31:49.797Z,42.70
2018-03-01T20:34:18.164Z,43.00
2018-03-01T20:36:45.717Z,42.90
2018-03-01T20:39:13.302Z,42.50
2018-03-01T20:41:40.856Z,42.10
2018-03-01T20:44:08.427Z,42.50
2018-03-01T20:46:36.013Z,42.70
2018-03-01T20:49:03.580Z,43.40
2018-03-01T20:51:31.174Z,42.80
2018-03-01T20:53:59.488Z,43.40
2018-03-01T20:56:27.049Z,43.30
2018-03-01T20:58:55.388Z,43.70
2018-03-01T21:01:22.957Z,43.60
2018-03-01T21:03:50.553Z,43.20
2018-03-01T21:06:18.107Z,43.20
2018-03-01T21:08:45.674Z,43.30
2018-03-01T21:11:13.269Z,43.10
2018-03-01T21:13:40.823Z,43.30
2018-03-01T21:16:08.406Z,43.20
2018-03-01T21:18:35.962Z,43.70
2018-03-01T21:21:03.550Z,42.70
2018-03-01T21:23:31.129Z,42.40
2018-03-01T21:25:58.672Z,42.70
2018-03-01T21:28:26.264Z,42.60
2018-03-01T21:30:53.825Z,43.10
2018-03-01T21:33:21.385Z,42.80
2018-03-01T21:35:49.737Z,42.70
2018-03-01T21:38:18.087Z,42.60
2018-03-01T21:40:45.685Z,42.50
2018-03-01T21:43:14.004Z,42.60
2018-03-01T21:45:41.560Z,42.60
2018-03-01T21:48:09.134Z,42.80
2018-03-01T21:50:36.688Z,43.20
2018-03-01T21:53:05.034Z,43.00
2018-03-01T21:55:32.593Z,42.30
2018-03-01T21:58:00.146Z,42.60
2018-03-01T22:00:27.724Z,42.40
2018-03-01T22:02:55.280Z,42.10
2018-03-01T22:05:22.857Z,42.80
2018-03-01T22:07:50.412Z,42.90
2018-03-01T22:10:18.748Z,42.80
2018-03-01T22:12:46.316Z,42.80
2018-03-01T22:15:17.486Z,42.70
2018-03-01T22:17:45.429Z,43.10
2018-03-01T22:20:13.008Z,43.10
2018-03-01T22:22:40.580Z,43.00
2018-03-01T22:25:08.160Z,43.50
2018-03-01T22:27:35.716Z,43.00
2018-03-01T22:30:03.300Z,42.70
2018-03-01T22:32:30.879Z,42.60
2018-03-01T22:34:58.480Z,42.80
2018-03-01T22:37:26.041Z,43.20
2018-03-01T22:39:53.613Z,43.30
2018-03-01T22:42:21.205Z,43.20
2018-03-01T22:44:48.777Z,43.20
2018-03-01T22:47:16.376Z,43.00
2018-03-01T22:49:43.950Z,43.70
2018-03-01T22:52:11.533Z,43.40
2018-03-01T22:54:39.085Z,43.40
2018-03-01T22:57:06.684Z,43.60
2018-03-01T22:59:35.117Z,43.40
2018-03-01T23:02:02.701Z,44.20
2018-03-01T23:04:31.020Z,44.10
2018-03-01T23:06:58.605Z,43.80
2018-03-01T23:09:26.169Z,43.50
2018-03-01T23:11:53.749Z,43.80
2018-03-01T23:14:21.300Z,43.50
2018-03-01T23:16:48.896Z,43.50
2018-03-01T23:19:16.470Z,43.80
2018-03-01T23:21:44.033Z,44.30
2018-03-01T23:24:11.619Z,44.20
2018-03-01T23:26:39.165Z,43.80
2018-03-01T23:29:06.745Z,44.30
2018-03-01T23:31:34.300Z,44.20
2018-03-01T23:34:01.890Z,44.00
2018-03-01T23:36:29.445Z,44.00
2018-03-01T23:38:57.033Z,44.10
2018-03-01T23:41:24.595Z,44.60
2018-03-01T23:43:52.176Z,44.90
2018-03-01T23:46:19.737Z,44.70
2018-03-01T23:48:47.325Z,44.40
2018-03-01T23:51:14.888Z,44.20
2018-03-01T23:53:42.475Z,44.40
2018-03-01T23:56:10.037Z,44.80
2018-03-01T23:58:37.617Z,44.60
